Time;durP1;ratioP1;P1;durP2;ratioP2;P2;SDS_P1;SDS_P2;PMS_P1;PMS_P2;Temp;Humidity;BMP_temperature;BMP_pressure;BME280_temperature;BME280_humidity;BME280_pressure;Samples;Min_cycle;Max_cycle;Signal;HPM_P1;HPM_P2
2023/05/26 00:00:54;;;;;;;6.72;3.85;;;;;;;;;;4991721;28;20027;-77
2023/05/26 00:03:19;;;;;;;11.30;4.30;;;;;;;;;;4993392;28;20097;-75
2023/05/26 00:05:45;;;;;;;12.15;4.15;;;;;;;;;;4992192;28;20034;-76
2023/05/26 00:08:10;;;;;;;9.10;4.15;;;;;;;;;;4993252;28;20386;-76
2023/05/26 00:10:36;;;;;;;17.27;4.55;;;;;;;;;;4993440;28;20088;-75
2023/05/26 00:13:01;;;;;;;8.13;4.13;;;;;;;;;;4994630;28;20062;-76
2023/05/26 00:15:27;;;;;;;11.18;4.32;;;;;;;;;;4996861;28;20042;-75
2023/05/26 00:17:52;;;;;;;8.63;3.95;;;;;;;;;;4995685;28;20034;-76
2023/05/26 00:20:18;;;;;;;7.05;3.67;;;;;;;;;;4996772;28;20129;-76
2023/05/26 00:22:44;;;;;;;10.82;4.35;;;;;;;;;;4995603;28;20382;-75
2023/05/26 00:25:09;;;;;;;12.35;4.70;;;;;;;;;;4996628;28;20050;-76
2023/05/26 00:27:35;;;;;;;11.13;4.18;;;;;;;;;;4996760;28;20462;-76
2023/05/26 00:30:00;;;;;;;10.55;4.22;;;;;;;;;;4996726;28;20038;-76
2023/05/26 00:32:25;;;;;;;9.77;4.45;;;;;;;;;;4996513;28;20075;-75
2023/05/26 00:34:51;;;;;;;10.70;4.43;;;;;;;;;;4996417;28;20470;-75
2023/05/26 00:37:17;;;;;;;12.13;4.18;;;;;;;;;;4996212;28;20034;-76
2023/05/26 00:39:42;;;;;;;15.50;4.38;;;;;;;;;;4996654;28;20034;-75
2023/05/26 00:42:08;;;;;;;14.57;4.28;;;;;;;;;;4995114;28;20038;-76
2023/05/26 00:44:33;;;;;;;10.82;4.40;;;;;;;;;;4996079;28;20529;-76
2023/05/26 00:46:58;;;;;;;11.02;3.95;;;;;;;;;;4996048;28;20125;-76
2023/05/26 00:49:24;;;;;;;10.27;4.18;;;;;;;;;;4996257;28;20035;-75
2023/05/26 00:51:49;;;;;;;13.82;4.35;;;;;;;;;;4995107;28;20026;-75
2023/05/26 00:54:15;;;;;;;9.68;4.40;;;;;;;;;;4996121;28;20052;-76
2023/05/26 00:56:42;;;;;;;6.47;3.60;;;;;;;;;;4994959;28;20483;-75
2023/05/26 00:59:10;;;;;;;14.27;4.15;;;;;;;;;;4995771;28;20050;-76
2023/05/26 01:01:36;;;;;;;8.10;3.50;;;;;;;;;;4994895;28;20038;-75
2023/05/26 01:04:01;;;;;;;22.85;4.90;;;;;;;;;;4994783;28;20053;-76
2023/05/26 01:06:26;;;;;;;9.90;4.22;;;;;;;;;;4996072;28;20027;-76
2023/05/26 01:08:52;;;;;;;10.73;4.15;;;;;;;;;;4995707;28;20096;-75
2023/05/26 01:11:31;;;;;;;7.25;3.72;;;;;;;;;;4995510;28;20046;-75
2023/05/26 01:14:19;;;;;;;7.97;4.05;;;;;;;;;;4994731;28;20118;-76
2023/05/26 01:16:52;;;;;;;7.20;3.70;;;;;;;;;;4994668;28;20038;-75
2023/05/26 01:19:43;;;;;;;10.70;4.10;;;;;;;;;;4994531;28;20034;-76
2023/05/26 01:22:37;;;;;;;14.93;3.67;;;;;;;;;;4985787;28;20471;-76
2023/05/26 01:25:24;;;;;;;9.88;3.25;;;;;;;;;;4983890;28;20061;-76
2023/05/26 01:28:12;;;;;;;5.95;3.25;;;;;;;;;;4984836;28;20497;-75
2023/05/26 01:30:38;;;;;;;8.88;3.78;;;;;;;;;;4995577;28;20049;-76
2023/05/26 01:33:04;;;;;;;8.35;4.00;;;;;;;;;;4994324;28;20471;-76
2023/05/26 01:35:29;;;;;;;14.13;4.35;;;;;;;;;;4994498;28;20096;-75
2023/05/26 01:37:55;;;;;;;10.32;3.50;;;;;;;;;;4994979;28;20383;-76
2023/05/26 01:40:20;;;;;;;8.75;4.15;;;;;;;;;;4993683;28;20073;-75
2023/05/26 01:42:53;;;;;;;9.32;4.18;;;;;;;;;;4995383;28;20394;-75
2023/05/26 01:45:21;;;;;;;11.13;3.87;;;;;;;;;;4990781;28;20030;-76
2023/05/26 01:47:49;;;;;;;6.75;3.55;;;;;;;;;;4995150;28;20038;-76
2023/05/26 01:50:17;;;;;;;18.63;4.47;;;;;;;;;;4993748;28;20483;-75
2023/05/26 01:52:43;;;;;;;13.55;3.85;;;;;;;;;;4993891;28;20038;-75
2023/05/26 01:55:11;;;;;;;7.25;3.88;;;;;;;;;;4995200;28;20049;-76
2023/05/26 01:57:37;;;;;;;10.52;3.95;;;;;;;;;;4994369;28;20117;-76
2023/05/26 02:00:03;;;;;;;7.88;3.58;;;;;;;;;;4993401;28;20141;-75
2023/05/26 02:02:29;;;;;;;10.73;3.42;;;;;;;;;;4994650;28;20053;-76
2023/05/26 02:04:54;;;;;;;7.10;4.05;;;;;;;;;;4994637;28;20042;-75
2023/05/26 02:07:20;;;;;;;10.80;4.47;;;;;;;;;;4994828;28;20034;-75
2023/05/26 02:09:46;;;;;;;7.80;3.72;;;;;;;;;;4992685;28;20100;-76
2023/05/26 02:12:11;;;;;;;10.38;3.47;;;;;;;;;;4994781;28;20038;-75
2023/05/26 02:14:36;;;;;;;7.95;4.25;;;;;;;;;;4994690;28;20030;-76
2023/05/26 02:17:03;;;;;;;6.53;3.47;;;;;;;;;;4994711;28;20046;-75
2023/05/26 02:19:29;;;;;;;8.65;3.65;;;;;;;;;;4994773;28;20042;-75
2023/05/26 02:21:55;;;;;;;10.00;4.22;;;;;;;;;;4993779;28;20034;-76
2023/05/26 02:24:21;;;;;;;7.95;3.70;;;;;;;;;;4994648;28;20037;-76
2023/05/26 02:26:47;;;;;;;8.50;3.83;;;;;;;;;;4993206;28;20042;-76
2023/05/26 02:29:12;;;;;;;15.32;4.32;;;;;;;;;;4994495;28;20204;-76
2023/05/26 02:31:39;;;;;;;6.72;3.60;;;;;;;;;;4994421;28;20038;-75
2023/05/26 02:34:05;;;;;;;7.38;3.67;;;;;;;;;;4993762;28;20038;-76
2023/05/26 02:36:31;;;;;;;6.93;3.78;;;;;;;;;;4994174;28;20042;-75
2023/05/26 02:38:57;;;;;;;23.95;4.13;;;;;;;;;;4993010;28;20038;-76
2023/05/26 02:41:23;;;;;;;6.03;3.58;;;;;;;;;;4993073;28;20038;-75
2023/05/26 02:43:48;;;;;;;4.80;3.25;;;;;;;;;;4994252;28;20031;-75
2023/05/26 02:46:14;;;;;;;10.35;3.53;;;;;;;;;;4992869;28;20372;-76
2023/05/26 02:48:39;;;;;;;7.80;3.33;;;;;;;;;;4994242;28;20037;-75
2023/05/26 02:51:05;;;;;;;9.45;3.83;;;;;;;;;;4994041;28;20088;-76
2023/05/26 02:53:32;;;;;;;14.32;3.75;;;;;;;;;;4992353;28;20104;-75
2023/05/26 02:55:58;;;;;;;7.45;3.58;;;;;;;;;;4994061;28;20052;-76
2023/05/26 02:58:23;;;;;;;7.93;3.97;;;;;;;;;;4992428;28;20050;-75
2023/05/26 03:00:50;;;;;;;9.05;3.70;;;;;;;;;;4993922;28;20034;-75
2023/05/26 03:03:16;;;;;;;7.30;3.42;;;;;;;;;;4993981;28;20042;-75
2023/05/26 03:05:41;;;;;;;6.97;3.63;;;;;;;;;;4992676;28;20092;-76
2023/05/26 03:08:07;;;;;;;13.68;3.83;;;;;;;;;;4993959;28;20121;-75
2023/05/26 03:10:33;;;;;;;7.03;3.92;;;;;;;;;;4993782;28;20046;-76
2023/05/26 03:12:58;;;;;;;6.18;3.47;;;;;;;;;;4992718;28;20069;-75
2023/05/26 03:15:24;;;;;;;6.53;3.40;;;;;;;;;;4993985;28;20157;-75
2023/05/26 03:17:50;;;;;;;13.15;3.45;;;;;;;;;;4992585;28;20065;-76
2023/05/26 03:20:16;;;;;;;12.35;3.55;;;;;;;;;;4993664;28;20470;-75
2023/05/26 03:22:41;;;;;;;12.20;3.95;;;;;;;;;;4993690;28;20042;-76
2023/05/26 03:25:07;;;;;;;11.20;3.95;;;;;;;;;;4993548;28;20061;-76
2023/05/26 03:27:32;;;;;;;7.28;3.70;;;;;;;;;;4993212;28;20034;-75
2023/05/26 03:29:58;;;;;;;9.77;4.03;;;;;;;;;;4993111;28;20437;-76
2023/05/26 03:32:23;;;;;;;7.47;3.13;;;;;;;;;;4993631;28;20026;-76
2023/05/26 03:34:48;;;;;;;9.70;3.92;;;;;;;;;;4993501;28;20038;-75
2023/05/26 03:37:15;;;;;;;11.45;3.60;;;;;;;;;;4992463;28;20045;-75
2023/05/26 03:39:41;;;;;;;5.47;3.15;;;;;;;;;;4993773;28;20045;-75
2023/05/26 03:42:06;;;;;;;8.98;3.80;;;;;;;;;;4993167;28;20041;-76
2023/05/26 03:44:32;;;;;;;10.38;3.70;;;;;;;;;;4993634;28;20045;-76
2023/05/26 03:46:57;;;;;;;15.75;3.35;;;;;;;;;;4995789;28;20038;-75
2023/05/26 03:49:22;;;;;;;10.70;3.38;;;;;;;;;;4997598;28;20035;-75
2023/05/26 03:51:48;;;;;;;10.07;4.05;;;;;;;;;;4997261;28;20065;-75
2023/05/26 03:54:13;;;;;;;9.27;3.22;;;;;;;;;;4997397;28;20042;-75
2023/05/26 03:56:39;;;;;;;7.93;3.20;;;;;;;;;;4997353;28;20042;-76
2023/05/26 03:59:04;;;;;;;4.22;2.90;;;;;;;;;;4997168;28;20447;-76
2023/05/26 04:01:29;;;;;;;5.93;3.20;;;;;;;;;;4996963;28;20046;-76
2023/05/26 04:03:55;;;;;;;6.80;2.53;;;;;;;;;;4997106;28;20037;-76
2023/05/26 04:06:22;;;;;;;10.23;3.70;;;;;;;;;;4996045;28;20042;-75
2023/05/26 04:08:48;;;;;;;6.72;3.30;;;;;;;;;;4995364;28;20042;-75
2023/05/26 04:11:14;;;;;;;5.85;3.33;;;;;;;;;;4997153;28;20488;-76
2023/05/26 04:13:40;;;;;;;12.48;3.42;;;;;;;;;;4995692;28;20030;-76
2023/05/26 04:16:05;;;;;;;11.95;3.70;;;;;;;;;;4995856;28;20050;-76
2023/05/26 04:18:31;;;;;;;9.07;3.30;;;;;;;;;;4996971;28;20102;-76
2023/05/26 04:20:56;;;;;;;7.53;3.55;;;;;;;;;;4996765;28;20046;-75
2023/05/26 04:23:22;;;;;;;6.95;3.70;;;;;;;;;;4996955;28;20050;-75
2023/05/26 04:25:48;;;;;;;5.60;3.50;;;;;;;;;;4996800;28;20462;-75
2023/05/26 04:28:14;;;;;;;7.03;3.25;;;;;;;;;;4995671;28;20038;-75
2023/05/26 04:30:40;;;;;;;7.78;3.33;;;;;;;;;;4996590;28;20084;-75
2023/05/26 04:33:07;;;;;;;8.77;3.55;;;;;;;;;;4989871;28;20031;-76
2023/05/26 04:35:33;;;;;;;9.98;3.80;;;;;;;;;;4993582;28;20117;-75
2023/05/26 04:37:59;;;;;;;7.25;3.40;;;;;;;;;;4996477;28;20042;-76
2023/05/26 04:40:25;;;;;;;6.95;3.95;;;;;;;;;;4996604;28;20092;-75
2023/05/26 04:42:50;;;;;;;8.65;3.95;;;;;;;;;;4996359;28;20502;-76
2023/05/26 04:45:16;;;;;;;9.10;3.60;;;;;;;;;;4996537;28;20648;-76
2023/05/26 04:47:42;;;;;;;6.68;3.50;;;;;;;;;;4995954;28;20034;-76
2023/05/26 04:50:12;;;;;;;9.10;3.55;;;;;;;;;;4996378;28;20050;-75
2023/05/26 04:52:39;;;;;;;7.82;3.38;;;;;;;;;;4981568;28;20042;-76
2023/05/26 04:55:05;;;;;;;8.27;3.50;;;;;;;;;;4996527;28;20035;-75
2023/05/26 04:57:31;;;;;;;7.82;3.90;;;;;;;;;;4994717;28;20486;-75
2023/05/26 04:59:56;;;;;;;6.50;3.25;;;;;;;;;;4996002;28;20069;-76
2023/05/26 05:02:21;;;;;;;9.50;3.47;;;;;;;;;;4995955;28;20153;-75
2023/05/26 05:04:47;;;;;;;13.35;3.63;;;;;;;;;;4995783;28;20038;-75
2023/05/26 05:07:12;;;;;;;12.05;3.50;;;;;;;;;;4996395;28;20038;-76
2023/05/26 05:09:38;;;;;;;6.00;3.42;;;;;;;;;;4996157;28;20116;-76
2023/05/26 05:12:03;;;;;;;8.98;2.90;;;;;;;;;;4995914;28;20045;-76
2023/05/26 05:14:29;;;;;;;4.97;3.03;;;;;;;;;;4995662;28;20121;-76
2023/05/26 05:16:54;;;;;;;5.53;2.67;;;;;;;;;;4992994;28;20485;-76
2023/05/26 05:19:19;;;;;;;11.20;3.13;;;;;;;;;;4995841;28;20042;-75
2023/05/26 05:21:45;;;;;;;5.28;2.97;;;;;;;;;;4994574;28;20037;-76
2023/05/26 05:24:10;;;;;;;7.82;2.97;;;;;;;;;;4995603;28;20030;-76
2023/05/26 05:26:37;;;;;;;4.28;2.45;;;;;;;;;;4994677;28;20053;-76
2023/05/26 05:29:03;;;;;;;5.80;2.83;;;;;;;;;;4994710;28;20089;-76
2023/05/26 05:31:29;;;;;;;5.00;2.50;;;;;;;;;;4995463;28;20077;-76
2023/05/26 05:33:54;;;;;;;4.25;2.55;;;;;;;;;;4995620;28;20042;-76
2023/05/26 05:36:19;;;;;;;4.95;2.40;;;;;;;;;;4995306;28;20045;-76
2023/05/26 05:38:45;;;;;;;4.57;2.45;;;;;;;;;;4995377;28;20456;-77
2023/05/26 05:41:10;;;;;;;4.63;2.42;;;;;;;;;;4995104;28;20069;-76
2023/05/26 05:43:36;;;;;;;3.63;2.35;;;;;;;;;;4992277;28;20042;-76
2023/05/26 05:46:01;;;;;;;5.97;2.35;;;;;;;;;;4995041;28;20415;-76
2023/05/26 05:48:26;;;;;;;4.75;2.65;;;;;;;;;;4995301;28;20046;-76
2023/05/26 05:50:52;;;;;;;4.07;2.58;;;;;;;;;;4995277;28;20034;-76
2023/05/26 05:53:17;;;;;;;4.68;2.30;;;;;;;;;;4995180;28;20019;-76
2023/05/26 05:55:43;;;;;;;3.88;2.55;;;;;;;;;;4995016;28;20585;-76
2023/05/26 05:58:08;;;;;;;4.10;2.10;;;;;;;;;;4994664;28;20093;-76
2023/05/26 06:00:34;;;;;;;6.13;2.30;;;;;;;;;;4995223;28;20034;-76
2023/05/26 06:02:59;;;;;;;5.18;2.28;;;;;;;;;;4994812;28;20148;-75
2023/05/26 06:05:25;;;;;;;4.75;2.22;;;;;;;;;;4994855;28;20045;-76
2023/05/26 06:07:50;;;;;;;4.93;2.20;;;;;;;;;;4995012;28;20517;-74
2023/05/26 06:10:16;;;;;;;8.02;2.40;;;;;;;;;;4994760;28;20185;-74
2023/05/26 06:12:41;;;;;;;4.78;2.30;;;;;;;;;;4991688;28;20038;-75
2023/05/26 06:15:07;;;;;;;5.38;2.30;;;;;;;;;;4994686;28;20034;-75
2023/05/26 06:17:33;;;;;;;4.57;2.17;;;;;;;;;;4994391;28;20509;-75
2023/05/26 06:19:58;;;;;;;7.32;2.65;;;;;;;;;;4994720;28;20042;-75
2023/05/26 06:22:23;;;;;;;4.35;2.22;;;;;;;;;;4994618;28;20089;-77
2023/05/26 06:24:49;;;;;;;5.95;2.38;;;;;;;;;;4994407;28;20070;-76
2023/05/26 06:27:15;;;;;;;3.55;2.08;;;;;;;;;;4994675;28;20422;-77
2023/05/26 06:29:40;;;;;;;6.75;2.25;;;;;;;;;;4994443;28;20113;-77
2023/05/26 06:32:05;;;;;;;4.70;2.40;;;;;;;;;;4994264;28;20042;-77
2023/05/26 06:34:31;;;;;;;8.77;2.40;;;;;;;;;;4994226;28;20074;-76
2023/05/26 06:36:56;;;;;;;4.72;2.05;;;;;;;;;;4994578;28;20038;-76
2023/05/26 06:39:23;;;;;;;6.10;2.05;;;;;;;;;;4994307;28;20079;-77
2023/05/26 06:41:49;;;;;;;7.20;2.30;;;;;;;;;;4993235;28;20042;-77
2023/05/26 06:44:15;;;;;;;7.22;2.95;;;;;;;;;;4994381;28;20070;-76
2023/05/26 06:46:40;;;;;;;10.23;2.38;;;;;;;;;;4994174;28;20069;-76
2023/05/26 06:49:06;;;;;;;9.02;2.40;;;;;;;;;;4994095;28;20042;-77
2023/05/26 06:51:31;;;;;;;9.35;2.60;;;;;;;;;;4993581;28;20057;-76
2023/05/26 06:53:56;;;;;;;7.32;2.38;;;;;;;;;;4994277;28;20038;-76
2023/05/26 06:56:22;;;;;;;7.05;2.30;;;;;;;;;;4994005;28;20478;-76
2023/05/26 06:58:47;;;;;;;8.68;2.03;;;;;;;;;;4994140;28;20046;-76
2023/05/26 07:01:12;;;;;;;5.95;2.25;;;;;;;;;;4993828;28;20046;-76
2023/05/26 07:03:38;;;;;;;6.78;2.35;;;;;;;;;;4994053;28;20483;-76
2023/05/26 07:06:03;;;;;;;5.18;2.33;;;;;;;;;;4994016;28;20031;-77
2023/05/26 07:08:29;;;;;;;8.75;2.67;;;;;;;;;;4993855;28;20439;-76
2023/05/26 07:10:54;;;;;;;7.68;2.05;;;;;;;;;;4993875;28;20546;-77
2023/05/26 07:13:20;;;;;;;5.50;1.90;;;;;;;;;;4993812;28;20481;-76
2023/05/26 07:15:46;;;;;;;7.63;2.25;;;;;;;;;;4992719;28;20038;-77
2023/05/26 07:18:11;;;;;;;7.35;2.38;;;;;;;;;;4993730;28;20557;-77
2023/05/26 07:20:37;;;;;;;7.47;2.20;;;;;;;;;;4995342;28;20125;-77
2023/05/26 07:23:02;;;;;;;4.63;2.13;;;;;;;;;;5000197;28;20113;-77
2023/05/26 07:25:28;;;;;;;7.50;2.22;;;;;;;;;;4999949;28;20068;-76
2023/05/26 07:27:54;;;;;;;9.20;2.40;;;;;;;;;;5000364;28;20076;-76
2023/05/26 07:30:19;;;;;;;10.52;2.33;;;;;;;;;;4999001;28;20034;-77
2023/05/26 07:32:45;;;;;;;7.78;2.10;;;;;;;;;;4999976;28;20049;-77
2023/05/26 07:35:11;;;;;;;8.43;2.45;;;;;;;;;;5000047;28;20033;-76
2023/05/26 07:37:37;;;;;;;5.93;2.47;;;;;;;;;;4995533;28;20046;-76
2023/05/26 07:40:04;;;;;;;8.25;2.20;;;;;;;;;;5000220;28;20046;-76
2023/05/26 07:42:30;;;;;;;11.60;2.60;;;;;;;;;;5000168;28;20061;-77
2023/05/26 07:44:56;;;;;;;9.73;2.63;;;;;;;;;;4998375;28;20218;-76
2023/05/26 07:47:22;;;;;;;11.30;2.53;;;;;;;;;;4999901;28;20546;-77
2023/05/26 07:49:47;;;;;;;7.68;2.40;;;;;;;;;;4998833;28;20038;-76
2023/05/26 07:52:13;;;;;;;7.65;2.33;;;;;;;;;;4998958;28;20039;-76
2023/05/26 07:54:38;;;;;;;7.95;2.60;;;;;;;;;;4998782;28;20125;-76
2023/05/26 07:57:05;;;;;;;9.57;2.80;;;;;;;;;;4999976;28;20363;-76
2023/05/26 07:59:30;;;;;;;8.10;2.42;;;;;;;;;;5000161;28;20046;-74
2023/05/26 08:01:56;;;;;;;7.63;2.38;;;;;;;;;;4999906;28;20106;-74
2023/05/26 08:04:21;;;;;;;7.15;2.30;;;;;;;;;;5000009;28;20061;-74
2023/05/26 08:06:47;;;;;;;9.93;2.17;;;;;;;;;;4999494;28;20499;-74
2023/05/26 08:09:13;;;;;;;8.05;2.22;;;;;;;;;;4999896;28;20041;-74
2023/05/26 08:11:38;;;;;;;8.63;2.35;;;;;;;;;;4999862;28;20034;-74
2023/05/26 08:14:03;;;;;;;8.18;2.45;;;;;;;;;;4998577;28;20050;-75
2023/05/26 08:16:29;;;;;;;7.53;2.67;;;;;;;;;;4999624;28;20049;-74
2023/05/26 08:18:55;;;;;;;9.20;2.50;;;;;;;;;;4999743;28;20089;-74
2023/05/26 08:21:20;;;;;;;7.70;2.40;;;;;;;;;;4999601;28;20510;-74
2023/05/26 08:23:46;;;;;;;9.55;2.55;;;;;;;;;;4999635;28;20045;-74
2023/05/26 08:26:11;;;;;;;10.48;2.67;;;;;;;;;;4999892;28;20034;-74
2023/05/26 08:28:36;;;;;;;6.45;2.17;;;;;;;;;;4997192;28;20038;-74
2023/05/26 08:31:02;;;;;;;9.95;2.60;;;;;;;;;;4999624;28;20038;-74
2023/05/26 08:33:27;;;;;;;8.55;2.65;;;;;;;;;;4995957;28;20026;-74
2023/05/26 08:35:53;;;;;;;8.02;2.70;;;;;;;;;;4996328;28;20399;-74
2023/05/26 08:38:18;;;;;;;7.45;2.80;;;;;;;;;;4996624;28;20505;-74
2023/05/26 08:40:44;;;;;;;7.90;2.70;;;;;;;;;;4996204;28;20106;-73
2023/05/26 08:43:12;;;;;;;6.88;2.75;;;;;;;;;;4995214;28;20046;-75
2023/05/26 08:45:38;;;;;;;10.73;2.88;;;;;;;;;;4994954;28;20550;-74
2023/05/26 08:48:07;;;;;;;5.97;2.25;;;;;;;;;;4996176;28;20035;-74
2023/05/26 08:50:33;;;;;;;8.50;2.65;;;;;;;;;;4996283;28;20123;-73
2023/05/26 08:53:00;;;;;;;8.40;2.83;;;;;;;;;;4996072;28;20046;-74
2023/05/26 08:55:26;;;;;;;10.70;2.30;;;;;;;;;;4995027;28;20117;-74
2023/05/26 08:57:52;;;;;;;9.23;2.75;;;;;;;;;;4996031;28;20054;-73
2023/05/26 09:00:18;;;;;;;8.88;2.28;;;;;;;;;;4994927;28;20039;-76
2023/05/26 09:02:43;;;;;;;10.15;2.70;;;;;;;;;;4996037;28;20045;-76
2023/05/26 09:05:08;;;;;;;8.82;2.60;;;;;;;;;;4996098;28;20084;-77
2023/05/26 09:07:34;;;;;;;9.07;2.67;;;;;;;;;;4996165;28;20497;-76
2023/05/26 09:10:26;;;;;;;9.27;2.70;;;;;;;;;;4995946;28;20088;-77
2023/05/26 09:13:05;;;;;;;9.27;2.77;;;;;;;;;;4988541;28;20053;-76
2023/05/26 09:15:30;;;;;;;12.95;3.22;;;;;;;;;;4988267;28;20268;-76
2023/05/26 09:18:12;;;;;;;10.77;3.13;;;;;;;;;;4994502;28;20092;-76
2023/05/26 09:20:42;;;;;;;14.63;2.97;;;;;;;;;;4994621;28;20084;-76
2023/05/26 09:23:08;;;;;;;12.00;3.38;;;;;;;;;;4995609;28;20272;-76
2023/05/26 09:25:35;;;;;;;7.20;2.60;;;;;;;;;;4995304;28;20121;-76
2023/05/26 09:28:05;;;;;;;10.50;2.80;;;;;;;;;;4994646;28;20034;-74
2023/05/26 09:30:39;;;;;;;11.93;3.03;;;;;;;;;;4995516;28;20046;-74
2023/05/26 09:33:11;;;;;;;7.72;2.30;;;;;;;;;;4986498;28;20050;-74
2023/05/26 09:35:46;;;;;;;11.95;2.90;;;;;;;;;;4994367;28;20074;-73
2023/05/26 09:38:14;;;;;;;10.95;2.65;;;;;;;;;;4991767;28;20031;-73
2023/05/26 09:40:49;;;;;;;9.48;2.20;;;;;;;;;;4993893;28;20478;-74
2023/05/26 09:43:22;;;;;;;8.88;2.65;;;;;;;;;;4993955;28;20041;-73
2023/05/26 09:45:47;;;;;;;7.70;2.45;;;;;;;;;;4985079;28;20486;-73
2023/05/26 09:48:14;;;;;;;10.07;2.90;;;;;;;;;;4995158;28;20117;-76
2023/05/26 09:50:40;;;;;;;9.43;2.30;;;;;;;;;;4995429;28;20165;-75
2023/05/26 09:53:10;;;;;;;9.43;3.00;;;;;;;;;;4995089;28;20125;-76
2023/05/26 09:55:38;;;;;;;12.25;2.88;;;;;;;;;;4995245;28;20035;-76
2023/05/26 09:58:05;;;;;;;8.77;2.47;;;;;;;;;;4994843;28;20065;-75
2023/05/26 10:00:33;;;;;;;9.38;2.63;;;;;;;;;;4993895;28;20173;-75
2023/05/26 10:02:58;;;;;;;14.02;2.95;;;;;;;;;;4993898;28;20038;-76
2023/05/26 10:05:24;;;;;;;9.35;2.15;;;;;;;;;;4993359;28;20038;-76
2023/05/26 10:07:51;;;;;;;10.85;2.95;;;;;;;;;;4993888;28;20038;-75
2023/05/26 10:10:17;;;;;;;10.45;3.28;;;;;;;;;;4993817;28;20046;-76
2023/05/26 10:12:42;;;;;;;7.20;2.53;;;;;;;;;;4994950;28;20526;-75
2023/05/26 10:15:09;;;;;;;12.90;2.90;;;;;;;;;;4994830;28;20046;-76
2023/05/26 10:17:34;;;;;;;12.50;3.08;;;;;;;;;;4992467;28;20045;-76
2023/05/26 10:20:00;;;;;;;10.40;2.88;;;;;;;;;;4993527;28;20019;-75
2023/05/26 10:22:38;;;;;;;11.73;2.95;;;;;;;;;;4993519;28;20042;-75
2023/05/26 10:25:12;;;;;;;10.20;2.28;;;;;;;;;;4994309;28;20045;-75
2023/05/26 10:27:46;;;;;;;6.57;2.10;;;;;;;;;;4994103;28;20401;-76
2023/05/26 10:30:15;;;;;;;10.30;2.50;;;;;;;;;;4993189;28;20030;-76
2023/05/26 10:32:52;;;;;;;11.25;2.75;;;;;;;;;;4994559;28;20093;-76
2023/05/26 10:35:27;;;;;;;7.65;2.40;;;;;;;;;;4994280;28;20432;-76
2023/05/26 10:38:01;;;;;;;8.10;2.60;;;;;;;;;;4994326;28;20042;-76
2023/05/26 10:40:32;;;;;;;7.25;2.00;;;;;;;;;;4983553;28;20122;-75
2023/05/26 10:43:02;;;;;;;11.13;2.38;;;;;;;;;;4991136;28;20485;-75
2023/05/26 10:45:32;;;;;;;6.97;2.42;;;;;;;;;;4992960;28;20065;-76
2023/05/26 10:47:59;;;;;;;8.80;2.10;;;;;;;;;;4994266;28;20050;-76
2023/05/26 10:50:25;;;;;;;5.03;1.92;;;;;;;;;;4992973;28;20390;-75
2023/05/26 10:52:51;;;;;;;9.93;2.42;;;;;;;;;;4994233;28;20027;-75
2023/05/26 10:55:52;;;;;;;9.73;2.55;;;;;;;;;;4992316;28;20045;-75
2023/05/26 10:58:27;;;;;;;7.97;2.20;;;;;;;;;;4993033;28;20100;-76
2023/05/26 11:00:59;;;;;;;9.75;2.50;;;;;;;;;;4993842;28;20494;-75
2023/05/26 11:03:35;;;;;;;6.30;1.95;;;;;;;;;;4992910;28;20077;-75
2023/05/26 11:06:01;;;;;;;8.90;1.60;;;;;;;;;;4991644;28;20034;-76
2023/05/26 11:08:33;;;;;;;8.07;2.30;;;;;;;;;;4992851;28;20046;-75
2023/05/26 11:11:00;;;;;;;10.65;2.25;;;;;;;;;;4993580;28;20042;-76
2023/05/26 11:13:44;;;;;;;7.55;2.10;;;;;;;;;;4992824;28;20034;-75
2023/05/26 11:16:13;;;;;;;15.77;2.28;;;;;;;;;;4978782;28;20034;-76
2023/05/26 11:18:40;;;;;;;10.73;2.47;;;;;;;;;;4993690;28;20109;-75
2023/05/26 11:21:06;;;;;;;7.75;2.10;;;;;;;;;;4993940;28;20053;-76
2023/05/26 11:23:32;;;;;;;5.75;1.58;;;;;;;;;;4987410;28;20038;-76
2023/05/26 11:25:57;;;;;;;9.05;2.10;;;;;;;;;;4993529;28;20074;-75
2023/05/26 11:28:23;;;;;;;10.95;2.65;;;;;;;;;;4992371;28;20085;-75
2023/05/26 11:30:48;;;;;;;10.65;2.35;;;;;;;;;;4993410;28;20045;-75
2023/05/26 11:33:14;;;;;;;10.32;2.13;;;;;;;;;;4993517;28;20027;-75
2023/05/26 11:35:40;;;;;;;6.38;2.13;;;;;;;;;;4993570;28;20041;-75
2023/05/26 11:38:05;;;;;;;12.00;2.30;;;;;;;;;;4992303;28;20042;-76
2023/05/26 11:40:32;;;;;;;14.40;2.47;;;;;;;;;;4992023;28;20105;-76
2023/05/26 11:42:57;;;;;;;6.38;2.05;;;;;;;;;;4993485;28;20514;-75
2023/05/26 11:45:25;;;;;;;6.13;1.48;;;;;;;;;;4993197;28;20110;-75
2023/05/26 11:47:50;;;;;;;5.60;1.73;;;;;;;;;;4992377;28;20446;-75
2023/05/26 11:50:17;;;;;;;12.43;2.13;;;;;;;;;;4993616;28;20050;-75
2023/05/26 11:52:43;;;;;;;5.40;1.70;;;;;;;;;;4989221;28;20109;-74
2023/05/26 11:55:17;;;;;;;7.72;2.13;;;;;;;;;;4981790;28;20035;-76
2023/05/26 11:57:45;;;;;;;12.73;2.65;;;;;;;;;;4980016;28;20043;-76
2023/05/26 12:00:17;;;;;;;13.07;3.15;;;;;;;;;;4990711;28;20097;-76
2023/05/26 12:02:43;;;;;;;9.70;2.03;;;;;;;;;;4992780;28;20039;-76
2023/05/26 12:05:23;;;;;;;11.30;2.10;;;;;;;;;;4988687;28;20034;-74
2023/05/26 12:08:08;;;;;;;8.93;2.30;;;;;;;;;;4988983;28;20043;-75
2023/05/26 12:10:34;;;;;;;5.55;1.92;;;;;;;;;;4988553;28;20521;-76
2023/05/26 12:13:00;;;;;;;7.68;2.10;;;;;;;;;;4990660;28;20043;-75
2023/05/26 12:15:25;;;;;;;10.75;1.90;;;;;;;;;;4994097;28;20038;-76
2023/05/26 12:17:51;;;;;;;10.65;2.35;;;;;;;;;;4992008;28;20043;-76
2023/05/26 12:20:17;;;;;;;4.88;1.70;;;;;;;;;;4995148;28;20491;-75
2023/05/26 12:22:43;;;;;;;4.97;2.10;;;;;;;;;;4994148;28;20037;-76
2023/05/26 12:25:09;;;;;;;11.15;2.17;;;;;;;;;;4992679;28;20042;-76
2023/05/26 12:27:38;;;;;;;6.13;2.00;;;;;;;;;;4988388;28;20507;-76
2023/05/26 12:30:18;;;;;;;7.70;1.80;;;;;;;;;;4992630;28;20113;-77
2023/05/26 12:32:45;;;;;;;8.07;1.90;;;;;;;;;;4987054;28;20038;-75
2023/05/26 12:35:11;;;;;;;9.10;1.85;;;;;;;;;;4992266;28;20410;-76
2023/05/26 12:37:37;;;;;;;7.35;2.00;;;;;;;;;;4986369;28;20031;-75
2023/05/26 12:40:03;;;;;;;9.35;2.25;;;;;;;;;;4980402;28;20087;-76
2023/05/26 12:42:28;;;;;;;9.57;2.08;;;;;;;;;;4986139;28;20097;-75
2023/05/26 12:44:53;;;;;;;12.95;2.15;;;;;;;;;;4990348;28;20026;-76
2023/05/26 12:47:19;;;;;;;7.07;2.42;;;;;;;;;;4996392;28;20508;-76
2023/05/26 12:49:45;;;;;;;7.60;2.00;;;;;;;;;;4996198;28;20061;-76
2023/05/26 12:52:10;;;;;;;6.97;1.80;;;;;;;;;;4996180;28;20026;-75
2023/05/26 12:54:36;;;;;;;5.45;1.90;;;;;;;;;;4995867;28;20368;-75
2023/05/26 12:57:04;;;;;;;13.48;2.17;;;;;;;;;;4996106;28;20034;-76
2023/05/26 12:59:36;;;;;;;8.88;2.13;;;;;;;;;;4995420;28;20043;-75
2023/05/26 13:02:02;;;;;;;9.45;2.33;;;;;;;;;;4993769;28;20049;-77
2023/05/26 13:04:28;;;;;;;8.18;1.85;;;;;;;;;;4996029;28;20493;-76
2023/05/26 13:06:54;;;;;;;4.72;1.85;;;;;;;;;;4994879;28;20034;-76
2023/05/26 13:09:20;;;;;;;9.30;2.13;;;;;;;;;;4994995;28;20430;-75
2023/05/26 13:11:46;;;;;;;8.73;1.92;;;;;;;;;;4995511;28;20034;-75
2023/05/26 13:14:11;;;;;;;11.05;1.73;;;;;;;;;;4995924;28;20038;-75
2023/05/26 13:16:38;;;;;;;5.53;2.00;;;;;;;;;;4994457;28;20046;-76
2023/05/26 13:19:04;;;;;;;6.85;1.75;;;;;;;;;;4995147;28;20044;-76
2023/05/26 13:21:30;;;;;;;7.25;1.70;;;;;;;;;;4995894;28;20105;-76
2023/05/26 13:23:56;;;;;;;7.80;1.45;;;;;;;;;;4995759;28;20038;-76
2023/05/26 13:26:22;;;;;;;7.28;2.30;;;;;;;;;;4995697;28;20030;-76
2023/05/26 13:28:50;;;;;;;6.55;1.77;;;;;;;;;;4995979;28;20125;-76
2023/05/26 13:31:15;;;;;;;6.30;1.65;;;;;;;;;;4974825;28;20121;-76
2023/05/26 13:33:40;;;;;;;5.40;1.73;;;;;;;;;;4988127;28;20546;-76
2023/05/26 13:36:07;;;;;;;7.93;1.98;;;;;;;;;;4993392;28;20036;-75
2023/05/26 13:38:33;;;;;;;7.50;1.90;;;;;;;;;;4994424;28;20065;-77
2023/05/26 13:40:58;;;;;;;9.70;1.85;;;;;;;;;;4995389;28;20030;-75
2023/05/26 13:43:24;;;;;;;7.30;1.90;;;;;;;;;;4994334;28;20185;-76
2023/05/26 13:45:50;;;;;;;9.80;2.25;;;;;;;;;;4993268;28;20046;-76
2023/05/26 13:48:15;;;;;;;5.65;1.73;;;;;;;;;;4995090;28;20038;-76
2023/05/26 13:50:40;;;;;;;6.60;1.85;;;;;;;;;;4995196;28;20108;-75
2023/05/26 13:53:06;;;;;;;5.63;2.08;;;;;;;;;;4994161;28;20080;-76
2023/05/26 13:55:32;;;;;;;8.30;1.70;;;;;;;;;;4994991;28;20030;-76
2023/05/26 13:57:57;;;;;;;4.88;1.40;;;;;;;;;;4994042;28;20043;-77
2023/05/26 14:00:23;;;;;;;8.35;1.98;;;;;;;;;;4993737;28;20610;-76
2023/05/26 14:02:49;;;;;;;6.40;1.80;;;;;;;;;;4995006;28;20479;-76
2023/05/26 14:05:16;;;;;;;5.95;1.35;;;;;;;;;;4991220;28;20431;-76
2023/05/26 14:07:42;;;;;;;6.68;1.85;;;;;;;;;;4992164;28;20053;-76
2023/05/26 14:10:08;;;;;;;6.95;1.80;;;;;;;;;;4992821;28;20038;-76
2023/05/26 14:12:34;;;;;;;6.70;1.80;;;;;;;;;;4991869;28;20042;-75
2023/05/26 14:14:59;;;;;;;4.75;1.88;;;;;;;;;;4992822;28;20061;-76
2023/05/26 14:17:24;;;;;;;4.53;1.42;;;;;;;;;;4991063;28;20040;-76
2023/05/26 14:19:50;;;;;;;6.30;1.80;;;;;;;;;;4986225;28;20062;-77
2023/05/26 14:22:15;;;;;;;7.38;1.95;;;;;;;;;;4994879;28;20084;-77
2023/05/26 14:24:42;;;;;;;6.35;1.90;;;;;;;;;;4992985;28;20463;-76
2023/05/26 14:27:07;;;;;;;6.65;1.95;;;;;;;;;;4991134;28;20038;-75
2023/05/26 14:29:33;;;;;;;5.85;1.77;;;;;;;;;;4989543;28;20030;-76
2023/05/26 14:31:58;;;;;;;12.35;1.80;;;;;;;;;;4991065;28;20065;-77
2023/05/26 14:34:24;;;;;;;14.05;1.80;;;;;;;;;;4990847;28;20397;-78
2023/05/26 14:36:49;;;;;;;4.03;1.58;;;;;;;;;;4990451;28;20125;-76